KILM

Wilmington International Airport

Wilmington, North Carolina, USA
METAR KILM 230253Z AUTO 20006KT 10SM CLR 23/21 A3012 RMK AO2 SLP198 LAST T02330206 53012
Observed Flight Rules
May-23 @ 02:53 UTC (17 minutes ago) Visual Flight Rules
Wind Visibility Clouds
200° at 6 knots 10 miles
  • Clear skies
Temperatures Readings
Current 23°C / 73°F
Dewpoint 21°C / 70°F
Humidity 89%
Altimeter 30.12" Hg
Pressure 1019.8 hPa
Elevation 9
METAR KILM 230253Z AUTO 20006KT 10SM CLR 23/21 A3012 RMK AO2 SLP198 LAST T02330206 53012
Observed Flight Rules
May-23 @ 02:53 UTC
(17 minutes ago)
VFR
Wind Visibility
200° at 6 knots 10 miles
Clouds
  • Clear skies
Temperature Dewpoint
23°C / 73°F 21°C / 70°F
Humidity Altimeter Pressure
89% 30.12" Hg 1019.8 hPa